Mayo, Canada
Current Conditions -  °F | °C
As of 8:00 PM on Friday 24 Oct 2014 (Local Time) from CYMA Reporting Station
Overcast Overcast  
Wind Chill: -2°   Ceiling: 3000
Heat Index: -2°   Visibility: 20mi
Dew Point: -4°   Wind: 0mph
Humidity: 86%   Direction: NA
Pressure: 29.84"   Gusts: NA
Location:  63.6°N, 135.88°W
Report Text: CYMA 250300Z 00000KT 20SM OVC030 M02/M04 A2984 RMK SC8 SLP140
Loading
Personal Weather Stations






























Interactive Weather Map
Tropical Storm Tracking
New forecast layout! Learn more

10-Day Weather Forecast

Advertisements
Track Severe Weather on mobile